Terminal Aerodrome Forecast
Issued by NWS Jackson, KY

Home | Current Version | Previous Version | Text Only | Print | Product List | Glossary On
Versions: 1 2 3 4 5 6 7 8 9 10 11 12 13 14 15 16 17 18 19 20 21 22 23 24
879
FTUS43 KJKL 051134
TAFLOZ
TAF
KLOZ 051134Z 0512/0612 VRB05KT P6SM OVC015
     FM051800 06004KT P6SM SCT015 SCT100
     FM060000 VRB03KT P6SM FEW015 OVC100
     FM060200 VRB03KT P6SM VCSH OVC050
     FM060400 VRB03KT 2SM -RA BR OVC030
     FM060800 VRB03KT 2SM -RA BR OVC008=

USA.gov is the U.S. government's official web portal to all federal, state and local government web resources and services.